Current Weather Conditions: station 62114

sailwx.info

See reports from other nearby stations

no recent reports received from weather station ID 62114

Tides Pressure Air temp Water temp Dewpoint Dewpoint depression Visibility Wind speed Wind direction Waves Ship positions
date/time (UTC)wind fromknots sea level pressurealtimeterstation pressurevisibilityair tempwater tempwave heightnotes
2017-May-24 08:00 280 12 10.4
2017-May-24 07:00 290 7 10.6
2017-May-24 06:00 290 8 10.2
2017-May-24 05:00 280 13 10.2
2017-May-24 04:00 270 7 10.5
2017-May-24 03:00 230 4 11.0
2017-May-24 02:00 210 4 12.0
2017-May-24 01:00 170 4 12.2
2017-May-24 00:00 170 2 13.0
2017-May-23 23:00 300 1 16.9
2017-May-23 22:00 230 2 12.2
2017-May-23 21:00 240 6 12.0
2017-May-23 20:00 230 8 11.4
2017-May-23 19:00 240 7 11.0
2017-May-23 18:00 240 8 10.8
2017-May-23 17:00 270 9 11.4
2017-May-23 16:00 280 13 11.1
2017-May-23 15:00 280 15 10.4
2017-May-23 14:00 280 15 10.0
2017-May-23 13:00 270 17 9.6
2017-May-23 12:00 270 14 9.5
2017-May-23 11:00 280 18 9.3
2017-May-23 10:00 290 18 9.1
2017-May-23 09:00 290 19 9.2
2017-May-23 08:00 280 20 9.0
2017-May-23 07:00 280 19 9.1
2017-May-23 06:00 280 20 9.2
2017-May-23 05:00 300 21 9.0
2017-May-23 04:00 280 21 9.1
2017-May-23 03:00 250 15 9.2
2017-May-23 02:00 170 14 9.5
2017-May-23 01:00 160 20 9.5
2017-May-23 00:00 160 21 10.1
2017-May-22 23:00 150 26 9.9
2017-May-22 22:00 150 25 9.8
2017-May-22 21:00 150 26 9.8
2017-May-22 20:00 150 26 9.7
2017-May-22 19:00 150 26 9.6
2017-May-22 18:00 150 22 9.7
2017-May-22 17:00 150 22 9.8
2017-May-22 16:00 160 22 10.0
2017-May-22 15:00 150 24 10.1
2017-May-22 14:00 160 22 9.9
2017-May-22 13:00 160 22 9.7
2017-May-22 12:00 150 22 9.5
2017-May-22 11:00 160 22 9.5
2017-May-22 10:00 150 20 9.6
2017-May-22 09:00 170 19 9.7